sensor_id;sensor_type;location;lat;lon;timestamp;temperature;humidity
46758;DHT22;32509;47.750;-3.396;2023-07-29T00:01:02;19.50;99.90
46758;DHT22;32509;47.750;-3.396;2023-07-29T00:03:28;19.50;99.90
46758;DHT22;32509;47.750;-3.396;2023-07-29T00:05:56;19.50;99.90
46758;DHT22;32509;47.750;-3.396;2023-07-29T00:08:21;19.50;99.90
46758;DHT22;32509;47.750;-3.396;2023-07-29T00:10:47;19.50;99.90
46758;DHT22;32509;47.750;-3.396;2023-07-29T00:13:13;19.40;99.90
46758;DHT22;32509;47.750;-3.396;2023-07-29T00:15:39;19.50;99.90
46758;DHT22;32509;47.750;-3.396;2023-07-29T00:18:04;19.50;99.90
46758;DHT22;32509;47.750;-3.396;2023-07-29T00:20:30;19.50;99.90
46758;DHT22;32509;47.750;-3.396;2023-07-29T00:22:56;19.50;99.90
46758;DHT22;32509;47.750;-3.396;2023-07-29T00:25:23;19.50;99.90
46758;DHT22;32509;47.750;-3.396;2023-07-29T00:27:49;19.50;99.90
46758;DHT22;32509;47.750;-3.396;2023-07-29T00:30:15;19.40;99.90
46758;DHT22;32509;47.750;-3.396;2023-07-29T00:32:41;19.50;99.90
46758;DHT22;32509;47.750;-3.396;2023-07-29T00:35:07;19.50;99.90
46758;DHT22;32509;47.750;-3.396;2023-07-29T00:37:33;19.50;99.90
46758;DHT22;32509;47.750;-3.396;2023-07-29T00:39:58;19.50;99.90
46758;DHT22;32509;47.750;-3.396;2023-07-29T00:42:25;19.50;99.90
46758;DHT22;32509;47.750;-3.396;2023-07-29T00:44:50;19.50;99.90
46758;DHT22;32509;47.750;-3.396;2023-07-29T00:47:16;19.50;99.90
46758;DHT22;32509;47.750;-3.396;2023-07-29T00:49:45;19.50;99.90
46758;DHT22;32509;47.750;-3.396;2023-07-29T00:52:11;19.50;99.90
46758;DHT22;32509;47.750;-3.396;2023-07-29T00:54:44;19.50;99.90
46758;DHT22;32509;47.750;-3.396;2023-07-29T00:57:11;19.50;99.90
46758;DHT22;32509;47.750;-3.396;2023-07-29T00:59:40;19.50;99.90
46758;DHT22;32509;47.750;-3.396;2023-07-29T01:02:06;19.50;99.90
46758;DHT22;32509;47.750;-3.396;2023-07-29T01:04:32;19.50;99.90
46758;DHT22;32509;47.750;-3.396;2023-07-29T01:07:07;19.50;99.90
46758;DHT22;32509;47.750;-3.396;2023-07-29T01:12:36;19.50;99.90
46758;DHT22;32509;47.750;-3.396;2023-07-29T01:15:09;19.50;99.90
46758;DHT22;32509;47.750;-3.396;2023-07-29T01:17:58;19.50;99.90
46758;DHT22;32509;47.750;-3.396;2023-07-29T01:20:25;19.50;99.90
46758;DHT22;32509;47.750;-3.396;2023-07-29T01:22:51;19.50;99.90
46758;DHT22;32509;47.750;-3.396;2023-07-29T01:25:17;19.50;99.90
46758;DHT22;32509;47.750;-3.396;2023-07-29T01:27:45;19.50;99.90
46758;DHT22;32509;47.750;-3.396;2023-07-29T01:30:11;19.50;99.90
46758;DHT22;32509;47.750;-3.396;2023-07-29T01:32:54;19.50;99.90
46758;DHT22;32509;47.750;-3.396;2023-07-29T01:35:42;19.50;99.90
46758;DHT22;32509;47.750;-3.396;2023-07-29T01:38:19;19.50;99.90
46758;DHT22;32509;47.750;-3.396;2023-07-29T01:40:48;19.50;99.90
46758;DHT22;32509;47.750;-3.396;2023-07-29T01:43:14;19.50;99.90
46758;DHT22;32509;47.750;-3.396;2023-07-29T01:45:40;19.40;99.90
46758;DHT22;32509;47.750;-3.396;2023-07-29T01:48:07;19.50;99.90
46758;DHT22;32509;47.750;-3.396;2023-07-29T01:50:34;19.50;99.90
46758;DHT22;32509;47.750;-3.396;2023-07-29T01:53:00;19.40;99.90
46758;DHT22;32509;47.750;-3.396;2023-07-29T01:55:26;19.40;99.90
46758;DHT22;32509;47.750;-3.396;2023-07-29T01:57:51;19.40;99.90
46758;DHT22;32509;47.750;-3.396;2023-07-29T02:00:18;19.40;99.90
46758;DHT22;32509;47.750;-3.396;2023-07-29T02:02:44;19.40;99.90
46758;DHT22;32509;47.750;-3.396;2023-07-29T02:05:10;19.40;99.90
46758;DHT22;32509;47.750;-3.396;2023-07-29T02:07:36;19.50;99.90
46758;DHT22;32509;47.750;-3.396;2023-07-29T02:10:02;19.40;99.90
46758;DHT22;32509;47.750;-3.396;2023-07-29T02:12:28;19.40;99.90
46758;DHT22;32509;47.750;-3.396;2023-07-29T02:14:53;19.40;99.90
46758;DHT22;32509;47.750;-3.396;2023-07-29T02:17:19;19.40;99.90
46758;DHT22;32509;47.750;-3.396;2023-07-29T02:19:45;19.40;99.90
46758;DHT22;32509;47.750;-3.396;2023-07-29T02:22:13;19.40;99.90
46758;DHT22;32509;47.750;-3.396;2023-07-29T02:24:39;19.40;99.90
46758;DHT22;32509;47.750;-3.396;2023-07-29T02:27:06;19.40;99.90
46758;DHT22;32509;47.750;-3.396;2023-07-29T02:29:31;19.40;99.90
46758;DHT22;32509;47.750;-3.396;2023-07-29T02:31:59;19.40;99.90
46758;DHT22;32509;47.750;-3.396;2023-07-29T02:34:25;19.40;99.90
46758;DHT22;32509;47.750;-3.396;2023-07-29T02:36:51;19.40;99.90
46758;DHT22;32509;47.750;-3.396;2023-07-29T02:39:16;19.40;99.90
46758;DHT22;32509;47.750;-3.396;2023-07-29T02:41:42;19.40;99.90
46758;DHT22;32509;47.750;-3.396;2023-07-29T02:44:08;19.40;99.90
46758;DHT22;32509;47.750;-3.396;2023-07-29T02:46:34;19.40;99.90
46758;DHT22;32509;47.750;-3.396;2023-07-29T02:49:01;19.40;99.90
46758;DHT22;32509;47.750;-3.396;2023-07-29T02:51:27;19.40;99.90
46758;DHT22;32509;47.750;-3.396;2023-07-29T02:53:52;19.40;99.90
46758;DHT22;32509;47.750;-3.396;2023-07-29T02:56:18;19.40;99.90
46758;DHT22;32509;47.750;-3.396;2023-07-29T02:58:44;19.40;99.90
46758;DHT22;32509;47.750;-3.396;2023-07-29T03:01:10;19.40;99.90
46758;DHT22;32509;47.750;-3.396;2023-07-29T03:03:36;19.40;99.90
46758;DHT22;32509;47.750;-3.396;2023-07-29T03:06:07;19.40;99.90
46758;DHT22;32509;47.750;-3.396;2023-07-29T03:08:33;19.40;99.90
46758;DHT22;32509;47.750;-3.396;2023-07-29T03:11:07;19.40;99.90
46758;DHT22;32509;47.750;-3.396;2023-07-29T03:13:33;19.40;99.90
46758;DHT22;32509;47.750;-3.396;2023-07-29T03:16:15;19.40;99.90
46758;DHT22;32509;47.750;-3.396;2023-07-29T03:18:42;19.40;99.90
46758;DHT22;32509;47.750;-3.396;2023-07-29T03:21:08;19.40;99.90
46758;DHT22;32509;47.750;-3.396;2023-07-29T03:23:38;19.40;99.90
46758;DHT22;32509;47.750;-3.396;2023-07-29T03:26:04;19.40;99.90
46758;DHT22;32509;47.750;-3.396;2023-07-29T03:28:37;19.40;99.90
46758;DHT22;32509;47.750;-3.396;2023-07-29T03:31:03;19.40;99.90
46758;DHT22;32509;47.750;-3.396;2023-07-29T03:33:29;19.40;99.90
46758;DHT22;32509;47.750;-3.396;2023-07-29T03:35:55;19.40;99.90
46758;DHT22;32509;47.750;-3.396;2023-07-29T03:38:20;19.40;99.90
46758;DHT22;32509;47.750;-3.396;2023-07-29T03:40:46;19.40;99.90
46758;DHT22;32509;47.750;-3.396;2023-07-29T03:43:12;19.40;99.90
46758;DHT22;32509;47.750;-3.396;2023-07-29T03:45:39;19.40;99.90
46758;DHT22;32509;47.750;-3.396;2023-07-29T03:48:05;19.40;99.90
46758;DHT22;32509;47.750;-3.396;2023-07-29T03:50:33;19.30;99.90
46758;DHT22;32509;47.750;-3.396;2023-07-29T03:53:00;19.30;99.90
46758;DHT22;32509;47.750;-3.396;2023-07-29T03:55:26;19.30;99.90
46758;DHT22;32509;47.750;-3.396;2023-07-29T03:57:52;19.30;99.90
46758;DHT22;32509;47.750;-3.396;2023-07-29T04:00:18;19.30;99.90
46758;DHT22;32509;47.750;-3.396;2023-07-29T04:02:44;19.30;99.90
46758;DHT22;32509;47.750;-3.396;2023-07-29T04:05:11;19.30;99.90
46758;DHT22;32509;47.750;-3.396;2023-07-29T04:07:37;19.30;99.90
46758;DHT22;32509;47.750;-3.396;2023-07-29T04:10:03;19.30;99.90
46758;DHT22;32509;47.750;-3.396;2023-07-29T04:12:30;19.30;99.90
46758;DHT22;32509;47.750;-3.396;2023-07-29T04:14:58;19.20;99.90
46758;DHT22;32509;47.750;-3.396;2023-07-29T04:17:24;19.20;99.90
46758;DHT22;32509;47.750;-3.396;2023-07-29T04:19:50;19.20;99.90
46758;DHT22;32509;47.750;-3.396;2023-07-29T04:22:16;19.20;99.90
46758;DHT22;32509;47.750;-3.396;2023-07-29T04:24:41;19.20;99.90
46758;DHT22;32509;47.750;-3.396;2023-07-29T04:27:11;19.20;99.90
46758;DHT22;32509;47.750;-3.396;2023-07-29T04:29:36;19.20;99.90
46758;DHT22;32509;47.750;-3.396;2023-07-29T04:32:05;19.20;99.90
46758;DHT22;32509;47.750;-3.396;2023-07-29T04:34:31;19.20;99.90
46758;DHT22;32509;47.750;-3.396;2023-07-29T04:36:57;19.20;99.90
46758;DHT22;32509;47.750;-3.396;2023-07-29T04:39:23;19.20;99.90
46758;DHT22;32509;47.750;-3.396;2023-07-29T04:41:49;19.20;99.90
46758;DHT22;32509;47.750;-3.396;2023-07-29T04:44:15;19.20;99.90
46758;DHT22;32509;47.750;-3.396;2023-07-29T04:46:41;19.20;99.90
46758;DHT22;32509;47.750;-3.396;2023-07-29T04:49:06;19.20;99.90
46758;DHT22;32509;47.750;-3.396;2023-07-29T04:51:32;19.20;99.90
46758;DHT22;32509;47.750;-3.396;2023-07-29T04:53:58;19.10;99.90
46758;DHT22;32509;47.750;-3.396;2023-07-29T04:56:25;19.10;99.90
46758;DHT22;32509;47.750;-3.396;2023-07-29T04:58:50;19.10;99.90
46758;DHT22;32509;47.750;-3.396;2023-07-29T05:01:16;19.10;99.90
46758;DHT22;32509;47.750;-3.396;2023-07-29T05:03:42;19.10;99.90
46758;DHT22;32509;47.750;-3.396;2023-07-29T05:06:08;19.20;99.90
46758;DHT22;32509;47.750;-3.396;2023-07-29T05:08:34;19.10;99.90
46758;DHT22;32509;47.750;-3.396;2023-07-29T05:11:00;19.10;99.90
46758;DHT22;32509;47.750;-3.396;2023-07-29T05:13:26;19.10;99.90
46758;DHT22;32509;47.750;-3.396;2023-07-29T05:15:51;19.10;99.90
46758;DHT22;32509;47.750;-3.396;2023-07-29T05:18:17;19.10;99.90
46758;DHT22;32509;47.750;-3.396;2023-07-29T05:20:43;19.00;99.90
46758;DHT22;32509;47.750;-3.396;2023-07-29T05:23:09;19.00;99.90
46758;DHT22;32509;47.750;-3.396;2023-07-29T05:25:35;19.00;99.90
46758;DHT22;32509;47.750;-3.396;2023-07-29T05:28:01;19.00;99.90
46758;DHT22;32509;47.750;-3.396;2023-07-29T05:30:28;19.00;99.90
46758;DHT22;32509;47.750;-3.396;2023-07-29T05:32:57;19.00;99.90
46758;DHT22;32509;47.750;-3.396;2023-07-29T05:35:23;19.00;99.90
46758;DHT22;32509;47.750;-3.396;2023-07-29T05:37:49;19.00;99.90
46758;DHT22;32509;47.750;-3.396;2023-07-29T05:40:18;19.00;99.90
46758;DHT22;32509;47.750;-3.396;2023-07-29T05:42:44;19.00;99.90
46758;DHT22;32509;47.750;-3.396;2023-07-29T05:45:11;18.90;99.90
46758;DHT22;32509;47.750;-3.396;2023-07-29T05:47:37;19.00;99.90
46758;DHT22;32509;47.750;-3.396;2023-07-29T05:50:04;19.00;99.90
46758;DHT22;32509;47.750;-3.396;2023-07-29T05:52:33;19.00;99.90
46758;DHT22;32509;47.750;-3.396;2023-07-29T05:54:59;19.00;99.90
46758;DHT22;32509;47.750;-3.396;2023-07-29T05:57:25;19.00;99.90
46758;DHT22;32509;47.750;-3.396;2023-07-29T05:59:50;19.00;99.90
46758;DHT22;32509;47.750;-3.396;2023-07-29T06:02:16;19.00;99.90
46758;DHT22;32509;47.750;-3.396;2023-07-29T06:04:42;19.00;99.90
46758;DHT22;32509;47.750;-3.396;2023-07-29T06:07:08;18.90;99.90
46758;DHT22;32509;47.750;-3.396;2023-07-29T06:09:33;18.90;99.90
46758;DHT22;32509;47.750;-3.396;2023-07-29T06:11:59;19.00;99.90
46758;DHT22;32509;47.750;-3.396;2023-07-29T06:14:25;19.00;99.90
46758;DHT22;32509;47.750;-3.396;2023-07-29T06:16:51;19.00;99.90
46758;DHT22;32509;47.750;-3.396;2023-07-29T06:19:18;19.00;99.90
46758;DHT22;32509;47.750;-3.396;2023-07-29T06:21:44;19.00;99.90
46758;DHT22;32509;47.750;-3.396;2023-07-29T06:24:09;19.00;99.90
46758;DHT22;32509;47.750;-3.396;2023-07-29T06:26:35;19.00;99.90
46758;DHT22;32509;47.750;-3.396;2023-07-29T06:29:01;19.00;99.90
46758;DHT22;32509;47.750;-3.396;2023-07-29T06:31:27;19.00;99.90
46758;DHT22;32509;47.750;-3.396;2023-07-29T06:33:52;19.00;99.90
46758;DHT22;32509;47.750;-3.396;2023-07-29T06:36:20;19.00;99.90
46758;DHT22;32509;47.750;-3.396;2023-07-29T06:38:46;19.00;99.90
46758;DHT22;32509;47.750;-3.396;2023-07-29T06:41:11;19.00;99.90
46758;DHT22;32509;47.750;-3.396;2023-07-29T06:43:37;19.00;99.90
46758;DHT22;32509;47.750;-3.396;2023-07-29T06:46:03;19.00;99.90
46758;DHT22;32509;47.750;-3.396;2023-07-29T06:48:29;19.00;99.90
46758;DHT22;32509;47.750;-3.396;2023-07-29T06:50:55;19.00;99.90
46758;DHT22;32509;47.750;-3.396;2023-07-29T06:53:21;19.10;99.90
46758;DHT22;32509;47.750;-3.396;2023-07-29T06:55:50;19.10;99.90
46758;DHT22;32509;47.750;-3.396;2023-07-29T06:58:15;19.10;99.90
46758;DHT22;32509;47.750;-3.396;2023-07-29T07:00:41;19.10;99.90
46758;DHT22;32509;47.750;-3.396;2023-07-29T07:03:07;19.10;99.90
46758;DHT22;32509;47.750;-3.396;2023-07-29T07:05:33;19.10;99.90
46758;DHT22;32509;47.750;-3.396;2023-07-29T07:07:58;19.10;99.90
46758;DHT22;32509;47.750;-3.396;2023-07-29T07:10:24;19.10;99.90
46758;DHT22;32509;47.750;-3.396;2023-07-29T07:12:50;19.10;99.90
46758;DHT22;32509;47.750;-3.396;2023-07-29T07:15:16;19.10;99.90
46758;DHT22;32509;47.750;-3.396;2023-07-29T07:17:41;19.20;99.90
46758;DHT22;32509;47.750;-3.396;2023-07-29T07:20:07;19.20;99.90
46758;DHT22;32509;47.750;-3.396;2023-07-29T07:22:33;19.20;99.90
46758;DHT22;32509;47.750;-3.396;2023-07-29T07:24:59;19.20;99.90
46758;DHT22;32509;47.750;-3.396;2023-07-29T07:27:24;19.20;99.90
46758;DHT22;32509;47.750;-3.396;2023-07-29T07:29:50;19.20;99.90
46758;DHT22;32509;47.750;-3.396;2023-07-29T07:32:16;19.20;99.90
46758;DHT22;32509;47.750;-3.396;2023-07-29T07:34:42;19.20;99.90
46758;DHT22;32509;47.750;-3.396;2023-07-29T07:37:07;19.30;99.90
46758;DHT22;32509;47.750;-3.396;2023-07-29T07:39:33;19.30;99.90
46758;DHT22;32509;47.750;-3.396;2023-07-29T07:41:59;19.30;99.90
46758;DHT22;32509;47.750;-3.396;2023-07-29T07:44:25;19.30;99.90
46758;DHT22;32509;47.750;-3.396;2023-07-29T07:46:52;19.30;99.90
46758;DHT22;32509;47.750;-3.396;2023-07-29T07:49:19;19.30;99.90
46758;DHT22;32509;47.750;-3.396;2023-07-29T07:51:44;19.30;99.90
46758;DHT22;32509;47.750;-3.396;2023-07-29T07:54:10;19.40;99.90
46758;DHT22;32509;47.750;-3.396;2023-07-29T07:56:36;19.40;99.90
46758;DHT22;32509;47.750;-3.396;2023-07-29T07:59:02;19.40;99.90
46758;DHT22;32509;47.750;-3.396;2023-07-29T08:01:28;19.40;99.90
46758;DHT22;32509;47.750;-3.396;2023-07-29T08:03:59;19.40;99.90
46758;DHT22;32509;47.750;-3.396;2023-07-29T08:06:24;19.40;99.90
46758;DHT22;32509;47.750;-3.396;2023-07-29T08:08:50;19.40;99.90
46758;DHT22;32509;47.750;-3.396;2023-07-29T08:11:16;19.40;99.90
46758;DHT22;32509;47.750;-3.396;2023-07-29T08:13:42;19.40;99.90
46758;DHT22;32509;47.750;-3.396;2023-07-29T08:16:07;19.40;99.90
46758;DHT22;32509;47.750;-3.396;2023-07-29T08:18:33;19.40;99.90
46758;DHT22;32509;47.750;-3.396;2023-07-29T08:21:00;19.50;99.90
46758;DHT22;32509;47.750;-3.396;2023-07-29T08:23:33;19.50;99.90
46758;DHT22;32509;47.750;-3.396;2023-07-29T08:26:02;19.50;99.90
46758;DHT22;32509;47.750;-3.396;2023-07-29T08:28:33;19.50;99.90
46758;DHT22;32509;47.750;-3.396;2023-07-29T08:30:59;19.50;99.90
46758;DHT22;32509;47.750;-3.396;2023-07-29T08:33:25;19.60;99.90
46758;DHT22;32509;47.750;-3.396;2023-07-29T08:35:51;19.60;99.90
46758;DHT22;32509;47.750;-3.396;2023-07-29T08:38:17;19.60;99.90
46758;DHT22;32509;47.750;-3.396;2023-07-29T08:41:24;19.60;99.90
46758;DHT22;32509;47.750;-3.396;2023-07-29T08:43:52;19.60;99.90
46758;DHT22;32509;47.750;-3.396;2023-07-29T08:46:20;19.60;99.90
46758;DHT22;32509;47.750;-3.396;2023-07-29T08:48:46;19.60;99.90
46758;DHT22;32509;47.750;-3.396;2023-07-29T08:51:12;19.60;99.90
46758;DHT22;32509;47.750;-3.396;2023-07-29T08:53:39;19.70;99.90
46758;DHT22;32509;47.750;-3.396;2023-07-29T08:56:06;19.70;99.90
46758;DHT22;32509;47.750;-3.396;2023-07-29T08:58:33;19.80;99.90
46758;DHT22;32509;47.750;-3.396;2023-07-29T09:00:59;19.80;99.90
46758;DHT22;32509;47.750;-3.396;2023-07-29T09:03:25;19.80;99.90
46758;DHT22;32509;47.750;-3.396;2023-07-29T09:05:51;19.80;99.90
46758;DHT22;32509;47.750;-3.396;2023-07-29T09:08:18;19.80;99.90
46758;DHT22;32509;47.750;-3.396;2023-07-29T09:10:44;19.80;99.90
46758;DHT22;32509;47.750;-3.396;2023-07-29T09:13:10;19.80;99.90
46758;DHT22;32509;47.750;-3.396;2023-07-29T09:15:37;19.90;99.90
46758;DHT22;32509;47.750;-3.396;2023-07-29T09:18:15;19.90;99.90
46758;DHT22;32509;47.750;-3.396;2023-07-29T09:20:41;19.90;99.90
46758;DHT22;32509;47.750;-3.396;2023-07-29T09:23:09;19.90;99.90
46758;DHT22;32509;47.750;-3.396;2023-07-29T09:25:39;20.00;99.90
46758;DHT22;32509;47.750;-3.396;2023-07-29T09:28:13;20.00;99.90
46758;DHT22;32509;47.750;-3.396;2023-07-29T09:30:40;20.00;99.90
46758;DHT22;32509;47.750;-3.396;2023-07-29T09:33:06;20.00;99.90
46758;DHT22;32509;47.750;-3.396;2023-07-29T09:35:35;20.00;99.90
46758;DHT22;32509;47.750;-3.396;2023-07-29T09:38:02;20.10;99.90
46758;DHT22;32509;47.750;-3.396;2023-07-29T09:40:34;20.10;99.90
46758;DHT22;32509;47.750;-3.396;2023-07-29T09:43:01;20.10;99.90
46758;DHT22;32509;47.750;-3.396;2023-07-29T09:45:27;20.10;99.90
46758;DHT22;32509;47.750;-3.396;2023-07-29T09:47:54;20.20;99.90
46758;DHT22;32509;47.750;-3.396;2023-07-29T09:50:26;20.20;99.90
46758;DHT22;32509;47.750;-3.396;2023-07-29T09:52:54;20.20;99.90
46758;DHT22;32509;47.750;-3.396;2023-07-29T09:55:24;20.20;99.90
46758;DHT22;32509;47.750;-3.396;2023-07-29T09:57:58;20.20;99.90
46758;DHT22;32509;47.750;-3.396;2023-07-29T10:00:29;20.30;99.90
46758;DHT22;32509;47.750;-3.396;2023-07-29T10:02:56;20.30;99.90
46758;DHT22;32509;47.750;-3.396;2023-07-29T10:05:22;20.40;99.90
46758;DHT22;32509;47.750;-3.396;2023-07-29T10:07:51;20.30;99.90
46758;DHT22;32509;47.750;-3.396;2023-07-29T10:10:17;20.30;99.90
46758;DHT22;32509;47.750;-3.396;2023-07-29T10:12:43;20.30;99.90
46758;DHT22;32509;47.750;-3.396;2023-07-29T10:15:09;20.40;99.90
46758;DHT22;32509;47.750;-3.396;2023-07-29T10:17:37;20.40;99.90
46758;DHT22;32509;47.750;-3.396;2023-07-29T10:20:08;20.40;99.90
46758;DHT22;32509;47.750;-3.396;2023-07-29T10:22:41;20.40;99.90
46758;DHT22;32509;47.750;-3.396;2023-07-29T10:25:18;20.40;99.90
46758;DHT22;32509;47.750;-3.396;2023-07-29T10:27:56;20.50;99.90
46758;DHT22;32509;47.750;-3.396;2023-07-29T10:30:24;20.50;99.90
46758;DHT22;32509;47.750;-3.396;2023-07-29T10:32:52;20.50;99.90
46758;DHT22;32509;47.750;-3.396;2023-07-29T10:35:18;20.60;99.90
46758;DHT22;32509;47.750;-3.396;2023-07-29T10:37:44;20.60;99.90
46758;DHT22;32509;47.750;-3.396;2023-07-29T10:40:11;20.50;99.90
46758;DHT22;32509;47.750;-3.396;2023-07-29T10:42:38;20.50;99.90
46758;DHT22;32509;47.750;-3.396;2023-07-29T10:45:20;20.60;99.90
46758;DHT22;32509;47.750;-3.396;2023-07-29T10:47:47;20.60;99.90
46758;DHT22;32509;47.750;-3.396;2023-07-29T10:50:21;20.50;99.90
46758;DHT22;32509;47.750;-3.396;2023-07-29T10:52:51;20.50;99.90
46758;DHT22;32509;47.750;-3.396;2023-07-29T10:58:09;20.50;99.90
46758;DHT22;32509;47.750;-3.396;2023-07-29T11:00:37;20.60;99.90
46758;DHT22;32509;47.750;-3.396;2023-07-29T11:03:06;20.60;99.90
46758;DHT22;32509;47.750;-3.396;2023-07-29T11:06:07;20.60;99.90
46758;DHT22;32509;47.750;-3.396;2023-07-29T11:08:33;20.70;99.90
46758;DHT22;32509;47.750;-3.396;2023-07-29T11:11:07;20.70;99.90
46758;DHT22;32509;47.750;-3.396;2023-07-29T11:13:34;20.70;99.90
46758;DHT22;32509;47.750;-3.396;2023-07-29T11:16:01;20.70;99.90
46758;DHT22;32509;47.750;-3.396;2023-07-29T11:18:32;20.70;99.90
46758;DHT22;32509;47.750;-3.396;2023-07-29T11:20:59;20.80;99.90
46758;DHT22;32509;47.750;-3.396;2023-07-29T11:23:36;20.70;99.90
46758;DHT22;32509;47.750;-3.396;2023-07-29T11:26:04;20.80;99.90
46758;DHT22;32509;47.750;-3.396;2023-07-29T11:28:30;20.90;99.90
46758;DHT22;32509;47.750;-3.396;2023-07-29T11:30:56;20.90;99.90
46758;DHT22;32509;47.750;-3.396;2023-07-29T11:33:25;20.90;99.90
46758;DHT22;32509;47.750;-3.396;2023-07-29T11:35:54;20.80;99.90
46758;DHT22;32509;47.750;-3.396;2023-07-29T11:38:21;20.90;99.90
46758;DHT22;32509;47.750;-3.396;2023-07-29T11:40:59;20.90;99.90
46758;DHT22;32509;47.750;-3.396;2023-07-29T11:43:26;20.90;99.90
46758;DHT22;32509;47.750;-3.396;2023-07-29T11:45:52;20.90;99.90
46758;DHT22;32509;47.750;-3.396;2023-07-29T11:48:26;20.90;99.90
46758;DHT22;32509;47.750;-3.396;2023-07-29T11:50:53;20.90;99.90
46758;DHT22;32509;47.750;-3.396;2023-07-29T11:53:20;20.90;99.90
46758;DHT22;32509;47.750;-3.396;2023-07-29T11:55:51;20.90;99.90
46758;DHT22;32509;47.750;-3.396;2023-07-29T11:58:17;21.00;99.90
46758;DHT22;32509;47.750;-3.396;2023-07-29T12:00:43;21.00;99.90
46758;DHT22;32509;47.750;-3.396;2023-07-29T12:03:09;21.00;99.90
46758;DHT22;32509;47.750;-3.396;2023-07-29T12:05:36;21.00;99.90
46758;DHT22;32509;47.750;-3.396;2023-07-29T12:08:02;20.90;99.90
46758;DHT22;32509;47.750;-3.396;2023-07-29T12:10:28;20.90;99.90
46758;DHT22;32509;47.750;-3.396;2023-07-29T12:12:55;20.90;99.90
46758;DHT22;32509;47.750;-3.396;2023-07-29T12:15:28;20.90;99.90
46758;DHT22;32509;47.750;-3.396;2023-07-29T12:17:58;21.00;99.90
46758;DHT22;32509;47.750;-3.396;2023-07-29T12:20:25;21.00;99.90
46758;DHT22;32509;47.750;-3.396;2023-07-29T12:22:56;21.00;99.90
46758;DHT22;32509;47.750;-3.396;2023-07-29T12:25:22;20.90;99.90
46758;DHT22;32509;47.750;-3.396;2023-07-29T12:27:48;21.00;99.90
46758;DHT22;32509;47.750;-3.396;2023-07-29T12:30:14;20.90;99.90
46758;DHT22;32509;47.750;-3.396;2023-07-29T12:32:44;20.90;99.90
46758;DHT22;32509;47.750;-3.396;2023-07-29T12:35:10;21.00;99.90
46758;DHT22;32509;47.750;-3.396;2023-07-29T12:37:36;21.00;99.90
46758;DHT22;32509;47.750;-3.396;2023-07-29T12:40:04;21.00;99.90
46758;DHT22;32509;47.750;-3.396;2023-07-29T12:42:33;20.90;99.90
46758;DHT22;32509;47.750;-3.396;2023-07-29T12:44:58;20.90;99.90
46758;DHT22;32509;47.750;-3.396;2023-07-29T12:47:24;20.90;99.90
46758;DHT22;32509;47.750;-3.396;2023-07-29T12:49:50;20.90;99.90
46758;DHT22;32509;47.750;-3.396;2023-07-29T12:52:16;20.90;99.90
46758;DHT22;32509;47.750;-3.396;2023-07-29T12:54:42;20.80;99.90
46758;DHT22;32509;47.750;-3.396;2023-07-29T12:57:09;20.80;99.90
46758;DHT22;32509;47.750;-3.396;2023-07-29T12:59:35;20.80;99.90
46758;DHT22;32509;47.750;-3.396;2023-07-29T13:02:01;20.80;99.90
46758;DHT22;32509;47.750;-3.396;2023-07-29T13:04:26;20.80;99.90
46758;DHT22;32509;47.750;-3.396;2023-07-29T13:06:52;20.80;99.90
46758;DHT22;32509;47.750;-3.396;2023-07-29T13:09:18;20.80;99.90
46758;DHT22;32509;47.750;-3.396;2023-07-29T13:11:44;20.80;99.90
46758;DHT22;32509;47.750;-3.396;2023-07-29T13:14:09;20.80;99.90
46758;DHT22;32509;47.750;-3.396;2023-07-29T13:16:35;20.70;99.90
46758;DHT22;32509;47.750;-3.396;2023-07-29T13:19:01;20.70;99.90
46758;DHT22;32509;47.750;-3.396;2023-07-29T13:21:27;20.70;99.90
46758;DHT22;32509;47.750;-3.396;2023-07-29T13:23:52;20.80;99.90
46758;DHT22;32509;47.750;-3.396;2023-07-29T13:26:21;20.70;99.90
46758;DHT22;32509;47.750;-3.396;2023-07-29T13:28:47;20.80;99.90
46758;DHT22;32509;47.750;-3.396;2023-07-29T13:31:12;20.80;99.90
46758;DHT22;32509;47.750;-3.396;2023-07-29T13:33:38;20.80;99.90
46758;DHT22;32509;47.750;-3.396;2023-07-29T13:36:05;20.80;99.90
46758;DHT22;32509;47.750;-3.396;2023-07-29T13:38:31;20.80;99.90
46758;DHT22;32509;47.750;-3.396;2023-07-29T13:40:57;20.80;99.90
46758;DHT22;32509;47.750;-3.396;2023-07-29T13:43:22;20.80;99.90
46758;DHT22;32509;47.750;-3.396;2023-07-29T13:45:48;20.80;99.90
46758;DHT22;32509;47.750;-3.396;2023-07-29T13:48:15;20.70;99.90
46758;DHT22;32509;47.750;-3.396;2023-07-29T13:50:41;20.80;99.90
46758;DHT22;32509;47.750;-3.396;2023-07-29T13:53:09;20.80;99.90
46758;DHT22;32509;47.750;-3.396;2023-07-29T13:55:35;20.80;99.90
46758;DHT22;32509;47.750;-3.396;2023-07-29T13:58:00;20.80;99.90
46758;DHT22;32509;47.750;-3.396;2023-07-29T14:00:26;20.80;99.90
46758;DHT22;32509;47.750;-3.396;2023-07-29T14:02:52;20.70;99.90
46758;DHT22;32509;47.750;-3.396;2023-07-29T14:05:18;20.80;99.90
46758;DHT22;32509;47.750;-3.396;2023-07-29T14:07:44;20.70;99.90
46758;DHT22;32509;47.750;-3.396;2023-07-29T14:10:09;20.60;99.90
46758;DHT22;32509;47.750;-3.396;2023-07-29T14:12:35;20.50;99.90
46758;DHT22;32509;47.750;-3.396;2023-07-29T14:15:01;20.50;99.90
46758;DHT22;32509;47.750;-3.396;2023-07-29T14:17:27;20.50;99.90
46758;DHT22;32509;47.750;-3.396;2023-07-29T14:19:53;20.50;99.90
46758;DHT22;32509;47.750;-3.396;2023-07-29T14:22:18;20.50;99.90
46758;DHT22;32509;47.750;-3.396;2023-07-29T14:24:44;20.50;99.90
46758;DHT22;32509;47.750;-3.396;2023-07-29T14:27:10;20.40;99.90
46758;DHT22;32509;47.750;-3.396;2023-07-29T14:29:36;20.40;99.90
46758;DHT22;32509;47.750;-3.396;2023-07-29T14:32:01;20.40;99.90
46758;DHT22;32509;47.750;-3.396;2023-07-29T14:34:27;20.40;99.90
46758;DHT22;32509;47.750;-3.396;2023-07-29T14:36:54;20.30;99.90
46758;DHT22;32509;47.750;-3.396;2023-07-29T14:39:20;20.30;99.90
46758;DHT22;32509;47.750;-3.396;2023-07-29T14:41:46;20.30;99.90
46758;DHT22;32509;47.750;-3.396;2023-07-29T14:44:11;20.30;99.90
46758;DHT22;32509;47.750;-3.396;2023-07-29T14:46:37;20.30;99.90
46758;DHT22;32509;47.750;-3.396;2023-07-29T14:49:03;20.30;99.90
46758;DHT22;32509;47.750;-3.396;2023-07-29T14:51:28;20.30;99.90
46758;DHT22;32509;47.750;-3.396;2023-07-29T14:53:54;20.30;99.90
46758;DHT22;32509;47.750;-3.396;2023-07-29T14:56:20;20.30;99.90
46758;DHT22;32509;47.750;-3.396;2023-07-29T14:58:46;20.30;99.90
46758;DHT22;32509;47.750;-3.396;2023-07-29T15:01:12;20.20;99.90
46758;DHT22;32509;47.750;-3.396;2023-07-29T15:03:37;20.20;99.90
46758;DHT22;32509;47.750;-3.396;2023-07-29T15:06:03;20.20;99.90
46758;DHT22;32509;47.750;-3.396;2023-07-29T15:08:29;20.20;99.90
46758;DHT22;32509;47.750;-3.396;2023-07-29T15:10:55;20.30;99.90
46758;DHT22;32509;47.750;-3.396;2023-07-29T15:13:21;20.30;99.90
46758;DHT22;32509;47.750;-3.396;2023-07-29T15:15:46;20.30;99.90
46758;DHT22;32509;47.750;-3.396;2023-07-29T15:18:15;20.30;99.90
46758;DHT22;32509;47.750;-3.396;2023-07-29T15:20:41;20.30;99.90